This is the latest recevied weather packets stored in our database for station/object KY0TEQ-13. If no packets are shown the sender has not sent any weather packets the latest 10 day(s).
| Time | Temp. | Humidity | Pressure | Rain* | Wind** | Luminosity | Snow |
|---|---|---|---|---|---|---|---|
| 1787938868 | 27.22° C | 29% | 1314.2 hPa | 0 mm | - | 633 W/m² | - |
| 1787938568 | 26.67° C | 29% | 1314.4 hPa | 0 mm | - | 698 W/m² | - |
| 1787938264 | 27.22° C | 29% | 1314.5 hPa | 0 mm | - | 665 W/m² | - |
| 1787937964 | 27.22° C | 29% | 1314.4 hPa | 0 mm | - | 508 W/m² | - |
| 1787937659 | 26.11° C | 30% | 1314.6 hPa | 0 mm | - | 680 W/m² | - |
| 1787937355 | 26.11° C | 30% | 1314.5 hPa | 0 mm | - | 471 W/m² | - |
| 1787937051 | 25.56° C | 31% | 1314.5 hPa | 0 mm | - | 381 W/m² | - |
| 1787936745 | 25.56° C | 29% | 1314.6 hPa | 0 mm | - | 423 W/m² | - |
| 1787936440 | 25.56° C | 30% | 1314.6 hPa | 0 mm | - | 494 W/m² | - |
| 1787936139 | 25.56° C | 31% | 1314.6 hPa | 0 mm | - | 483 W/m² | - |
| 1787935836 | 26.11° C | 31% | 1314.5 hPa | 0 mm | - | 469 W/m² | - |
| 1787935531 | 25.56° C | 30% | 1314.6 hPa | 0 mm | - | 644 W/m² | - |
| 1787935227 | 25° C | 31% | 1314.6 hPa | 0 mm | - | 586 W/m² | - |
| 1787934922 | 25° C | 32% | 1314.5 hPa | 0 mm | - | 181 W/m² | - |
| 1787934621 | 25° C | 31% | 1314.9 hPa | 0 mm | - | 609 W/m² | - |
| 1787934316 | 25° C | 32% | 1314.7 hPa | 0 mm | - | 628 W/m² | - |
| 1787934015 | 25.56° C | 31% | 1314.9 hPa | 0 mm | - | 594 W/m² | - |
| 1787933709 | 24.44° C | 32% | 1314.7 hPa | 0 mm | - | 613 W/m² | - |
| 1787933403 | 24.44° C | 32% | 1314.7 hPa | 0 mm | - | 590 W/m² | - |
| 1787933098 | 23.89° C | 33% | 1314.7 hPa | 0 mm | - | 538 W/m² | - |
| 1787932796 | 24.44° C | 32% | 1314.7 hPa | 0 mm | - | 500 W/m² | - |
| 1787932491 | 23.89° C | 31% | 1314.6 hPa | 0 mm | - | 501 W/m² | - |
| 1787932186 | 23.33° C | 33% | 1314.5 hPa | 0 mm | - | 321 W/m² | - |
| 1787931885 | 23.33° C | 33% | 1314.6 hPa | 0 mm | - | 334 W/m² | - |
| 1787931585 | 23.33° C | 34% | 1314.6 hPa | 0 mm | - | 309 W/m² | - |
* Rain latest hour (hover to see other rain measurements)
** Current wind speed in m/s (hover to see current wind gust speed)